createdAt,value
2019-05-26T00:01:42.968Z,1.42
2019-05-26T00:04:11.741Z,2.15
2019-05-26T00:06:40.539Z,2.15
2019-05-26T00:09:09.343Z,1.98
2019-05-26T00:11:38.176Z,1.40
2019-05-26T00:14:06.965Z,2.30
2019-05-26T00:16:36.102Z,2.40
2019-05-26T00:19:05.402Z,2.10
2019-05-26T00:21:34.391Z,2.05
2019-05-26T00:24:03.180Z,2.65
2019-05-26T00:26:31.971Z,1.87
2019-05-26T00:29:03.288Z,1.92
2019-05-26T00:31:32.069Z,1.80
2019-05-26T00:34:00.920Z,2.65
2019-05-26T00:36:29.723Z,2.42
2019-05-26T00:38:58.880Z,1.30
2019-05-26T00:41:29.048Z,1.30
2019-05-26T00:43:57.830Z,2.00
2019-05-26T00:46:26.622Z,2.40
2019-05-26T00:48:55.754Z,1.90
2019-05-26T00:51:24.567Z,2.27
2019-05-26T00:53:53.384Z,1.90
2019-05-26T00:56:22.211Z,1.80
2019-05-26T00:58:51.012Z,1.95
2019-05-26T01:01:19.846Z,1.92
2019-05-26T01:03:48.688Z,2.02
2019-05-26T01:06:17.484Z,1.65
2019-05-26T01:08:46.276Z,1.80
2019-05-26T01:11:15.115Z,2.37
2019-05-26T01:13:44.994Z,2.33
2019-05-26T01:16:13.961Z,2.02
2019-05-26T01:18:42.930Z,1.93
2019-05-26T01:21:11.734Z,1.50
2019-05-26T01:23:40.522Z,2.05
2019-05-26T01:26:09.364Z,2.50
2019-05-26T01:28:38.147Z,1.72
2019-05-26T01:31:06.968Z,1.77
2019-05-26T01:33:35.780Z,2.08
2019-05-26T01:36:04.966Z,2.25
2019-05-26T01:38:34.068Z,2.20
2019-05-26T01:41:03.851Z,2.05
2019-05-26T01:43:32.711Z,2.37
2019-05-26T01:46:01.503Z,2.50
2019-05-26T01:48:30.661Z,2.45
2019-05-26T01:50:59.433Z,2.12
2019-05-26T01:53:28.629Z,2.15
2019-05-26T01:55:57.416Z,2.12
2019-05-26T01:58:26.593Z,2.02
2019-05-26T02:00:55.399Z,2.20
2019-05-26T02:03:24.192Z,2.60
2019-05-26T02:05:53.038Z,2.35
2019-05-26T02:08:21.838Z,2.40
2019-05-26T02:10:50.858Z,2.93
2019-05-26T02:13:19.759Z,2.58
2019-05-26T02:15:48.575Z,2.97
2019-05-26T02:18:17.408Z,2.15
2019-05-26T02:20:46.245Z,2.30
2019-05-26T02:23:15.033Z,2.27
2019-05-26T02:25:43.878Z,1.50
2019-05-26T02:28:12.691Z,2.20
2019-05-26T02:30:41.517Z,2.45
2019-05-26T02:33:10.371Z,2.37
2019-05-26T02:35:39.157Z,1.90
2019-05-26T02:38:07.961Z,2.80
2019-05-26T02:40:36.925Z,2.50
2019-05-26T02:43:05.775Z,2.37
2019-05-26T02:45:34.569Z,2.30
2019-05-26T02:48:03.585Z,1.97
2019-05-26T02:50:32.386Z,2.02
2019-05-26T02:53:01.209Z,2.20
2019-05-26T02:55:29.936Z,1.90
2019-05-26T02:57:58.733Z,2.27
2019-05-26T03:00:42.547Z,2.33
2019-05-26T03:03:12.353Z,1.82
2019-05-26T03:05:44.208Z,1.50
2019-05-26T03:08:15.348Z,1.53
2019-05-26T03:10:44.346Z,1.45
2019-05-26T03:13:17.231Z,1.47
2019-05-26T03:15:46.873Z,1.30
2019-05-26T03:18:15.973Z,1.07
2019-05-26T03:20:47.729Z,1.45
2019-05-26T03:23:16.793Z,1.12
2019-05-26T03:25:45.806Z,1.00
2019-05-26T03:28:14.652Z,1.33
2019-05-26T03:30:43.472Z,1.42
2019-05-26T03:33:12.270Z,0.90
2019-05-26T03:35:41.125Z,1.07
2019-05-26T03:38:10.238Z,1.10
2019-05-26T03:40:38.992Z,1.10
2019-05-26T03:43:07.796Z,1.15
2019-05-26T03:45:42.545Z,1.37
2019-05-26T03:48:11.415Z,1.33
2019-05-26T03:50:40.190Z,1.00
2019-05-26T03:53:08.966Z,1.27
2019-05-26T03:55:37.833Z,1.37
2019-05-26T03:58:06.749Z,0.98
2019-05-26T04:00:35.669Z,0.90
2019-05-26T04:03:04.763Z,1.17
2019-05-26T04:05:33.513Z,1.00
2019-05-26T04:08:04.962Z,1.50
2019-05-26T04:10:32.768Z,1.30
2019-05-26T04:13:01.600Z,1.00
2019-05-26T04:15:30.317Z,1.30
2019-05-26T04:17:59.171Z,1.20
2019-05-26T04:20:28.315Z,1.50
2019-05-26T04:22:57.131Z,1.22
2019-05-26T04:25:26.519Z,1.65
2019-05-26T04:27:55.365Z,1.40
2019-05-26T04:30:24.160Z,1.22
2019-05-26T04:32:53.010Z,1.17
2019-05-26T04:35:21.797Z,1.00
2019-05-26T04:37:50.614Z,1.50
2019-05-26T04:40:27.332Z,1.10
2019-05-26T04:42:50.673Z,1.05
2019-05-26T04:45:19.525Z,1.00
2019-05-26T04:47:48.250Z,1.00
2019-05-26T04:50:17.348Z,1.17
2019-05-26T04:53:04.516Z,1.23
2019-05-26T04:55:17.694Z,1.12
2019-05-26T04:57:46.487Z,1.30
2019-05-26T05:00:16.030Z,1.10
2019-05-26T05:02:44.830Z,1.10
2019-05-26T05:05:15.004Z,1.15
2019-05-26T05:07:43.810Z,0.85
2019-05-26T05:10:12.839Z,1.20
2019-05-26T05:12:41.737Z,1.33
2019-05-26T05:15:10.838Z,1.50
2019-05-26T05:17:39.680Z,1.45
2019-05-26T05:20:08.950Z,1.12
2019-05-26T05:22:39.163Z,1.07
2019-05-26T05:25:14.606Z,1.17
2019-05-26T05:27:39.753Z,1.50
2019-05-26T05:30:09.996Z,1.12
2019-05-26T05:32:39.214Z,1.20
2019-05-26T05:35:10.028Z,1.45
2019-05-26T05:37:38.938Z,1.30
2019-05-26T05:40:08.652Z,1.40
2019-05-26T05:42:37.450Z,1.70
2019-05-26T05:45:08.177Z,1.57
2019-05-26T05:47:37.255Z,1.32
2019-05-26T05:50:10.915Z,1.20
2019-05-26T05:52:39.721Z,1.27
2019-05-26T05:55:08.749Z,1.30
2019-05-26T05:57:37.555Z,1.70
2019-05-26T06:00:10.791Z,1.43
2019-05-26T06:02:39.629Z,1.50
2019-05-26T06:05:09.034Z,1.92
2019-05-26T06:07:37.823Z,1.98
2019-05-26T06:10:10.090Z,1.55
2019-05-26T06:12:38.857Z,1.50
2019-05-26T06:15:13.411Z,1.83
2019-05-26T06:17:43.217Z,1.72
2019-05-26T06:20:12.883Z,2.00
2019-05-26T06:22:41.756Z,2.33
2019-05-26T06:25:12.336Z,1.40
2019-05-26T06:27:41.175Z,1.87
2019-05-26T06:30:10.773Z,1.63
2019-05-26T06:32:39.589Z,1.70
2019-05-26T06:35:08.746Z,1.47
2019-05-26T06:37:37.538Z,1.90
2019-05-26T06:40:08.303Z,1.60
2019-05-26T06:42:38.318Z,1.30
2019-05-26T06:45:07.522Z,1.32
2019-05-26T06:47:36.345Z,1.20
2019-05-26T06:50:09.862Z,1.10
2019-05-26T06:52:39.106Z,1.30
2019-05-26T06:55:08.205Z,1.47
2019-05-26T06:57:37.010Z,1.00
2019-05-26T07:00:07.440Z,1.17
2019-05-26T07:02:36.633Z,1.43
2019-05-26T07:05:09.565Z,1.20
2019-05-26T07:07:38.789Z,1.25
2019-05-26T07:10:08.117Z,1.50
2019-05-26T07:12:39.923Z,1.30
2019-05-26T07:15:10.575Z,1.10
2019-05-26T07:17:39.402Z,1.70
2019-05-26T07:20:11.729Z,1.72
2019-05-26T07:22:40.571Z,1.00
2019-05-26T07:25:09.929Z,1.27
2019-05-26T07:27:38.762Z,0.88
2019-05-26T07:30:08.152Z,1.60
2019-05-26T07:32:37.004Z,1.17
2019-05-26T07:35:07.733Z,1.30
2019-05-26T07:37:36.565Z,1.47
2019-05-26T07:40:05.778Z,1.40
2019-05-26T07:42:34.993Z,1.53
2019-05-26T07:45:04.695Z,1.30
2019-05-26T07:47:33.589Z,1.40
2019-05-26T07:50:02.533Z,1.10
2019-05-26T07:52:31.405Z,1.40
2019-05-26T07:55:00.164Z,1.45
2019-05-26T07:57:28.961Z,1.70
2019-05-26T07:59:57.762Z,1.50
2019-05-26T08:02:26.608Z,1.20
2019-05-26T08:04:55.416Z,1.30
2019-05-26T08:07:24.229Z,1.33
2019-05-26T08:09:53.412Z,1.53
2019-05-26T08:12:26.820Z,1.10
2019-05-26T08:14:52.688Z,1.60
2019-05-26T08:17:21.472Z,1.43
2019-05-26T08:19:50.317Z,1.60
2019-05-26T08:22:19.498Z,1.80
2019-05-26T08:24:48.295Z,2.65
2019-05-26T08:27:17.470Z,3.60
2019-05-26T08:29:46.315Z,1.40
2019-05-26T08:32:15.269Z,1.60
2019-05-26T08:34:44.126Z,1.22
2019-05-26T08:37:12.962Z,1.85
2019-05-26T08:39:41.765Z,1.63
2019-05-26T08:42:24.637Z,1.55
2019-05-26T08:44:41.336Z,1.70
2019-05-26T08:47:10.245Z,1.53
2019-05-26T08:49:38.977Z,1.40
2019-05-26T08:52:07.824Z,1.32
2019-05-26T08:54:36.675Z,1.57
2019-05-26T08:57:06.961Z,1.17
2019-05-26T08:59:35.691Z,1.90
2019-05-26T09:02:04.809Z,1.70
2019-05-26T09:04:33.675Z,1.40
2019-05-26T09:07:02.462Z,1.62
2019-05-26T09:09:31.243Z,1.47
2019-05-26T09:12:00.041Z,1.10
2019-05-26T09:14:29.134Z,1.63
2019-05-26T09:16:58.015Z,1.70
2019-05-26T09:19:26.813Z,1.45
2019-05-26T09:21:55.578Z,1.20
2019-05-26T09:24:24.382Z,1.30
2019-05-26T09:26:53.475Z,1.20
2019-05-26T09:29:22.298Z,1.47
2019-05-26T09:31:51.146Z,1.52
2019-05-26T09:34:20.033Z,1.27
2019-05-26T09:36:48.852Z,1.52
2019-05-26T09:39:17.690Z,1.57
2019-05-26T09:41:46.503Z,1.20
2019-05-26T09:44:15.236Z,1.17
2019-05-26T09:46:44.386Z,1.40
2019-05-26T09:49:13.179Z,1.60
2019-05-26T09:51:41.969Z,1.35
2019-05-26T09:54:12.745Z,1.42
2019-05-26T09:56:41.197Z,1.60
2019-05-26T09:59:10.050Z,1.20
2019-05-26T10:01:38.860Z,1.02
2019-05-26T10:04:07.664Z,1.45
2019-05-26T10:06:36.410Z,0.93
2019-05-26T10:09:07.577Z,1.67
2019-05-26T10:11:36.378Z,1.30
2019-05-26T10:14:05.212Z,0.98
2019-05-26T10:16:34.361Z,1.00
2019-05-26T10:19:03.166Z,0.90
2019-05-26T10:21:31.998Z,1.30
2019-05-26T10:24:00.804Z,1.30
2019-05-26T10:26:29.651Z,1.47
2019-05-26T10:29:00.761Z,1.00
2019-05-26T10:31:28.921Z,1.33
2019-05-26T10:33:57.707Z,0.72
2019-05-26T10:36:26.886Z,1.10
2019-05-26T10:38:55.683Z,1.20
2019-05-26T10:41:24.530Z,1.20
2019-05-26T10:43:55.028Z,1.27
2019-05-26T10:46:23.853Z,1.90
2019-05-26T10:48:52.743Z,0.98
2019-05-26T10:51:21.580Z,1.20
2019-05-26T10:53:51.899Z,1.05
2019-05-26T10:56:21.553Z,1.42
2019-05-26T10:58:50.462Z,1.12
2019-05-26T11:01:19.441Z,0.98
2019-05-26T11:03:48.295Z,1.40
2019-05-26T11:06:17.123Z,1.32
2019-05-26T11:08:45.885Z,1.30
2019-05-26T11:11:14.738Z,1.30
2019-05-26T11:13:45.272Z,1.05
2019-05-26T11:16:14.054Z,0.82
2019-05-26T11:18:42.901Z,1.10
2019-05-26T11:21:12.481Z,1.00
2019-05-26T11:23:41.558Z,1.17
2019-05-26T11:26:10.427Z,1.40
2019-05-26T11:28:39.154Z,1.12
2019-05-26T11:31:08.006Z,1.20
2019-05-26T11:33:36.789Z,1.20
2019-05-26T11:36:06.605Z,1.00
2019-05-26T11:38:35.818Z,1.00
2019-05-26T11:41:04.711Z,1.15
2019-05-26T11:43:33.515Z,1.00
2019-05-26T11:46:02.355Z,2.08
2019-05-26T11:48:31.148Z,1.52
2019-05-26T11:51:00.139Z,1.00
2019-05-26T11:53:28.955Z,1.00
2019-05-26T11:55:57.756Z,1.05
2019-05-26T11:58:26.903Z,1.10
2019-05-26T12:00:58.559Z,0.93
2019-05-26T12:03:27.418Z,1.15
2019-05-26T12:05:56.219Z,1.00
2019-05-26T12:08:25.061Z,0.78
2019-05-26T12:10:58.145Z,0.93
2019-05-26T12:13:24.337Z,0.90
2019-05-26T12:15:53.183Z,1.00
2019-05-26T12:18:21.990Z,1.42
2019-05-26T12:20:50.786Z,1.10
2019-05-26T12:23:19.626Z,0.78
2019-05-26T12:25:48.464Z,0.80
2019-05-26T12:28:17.276Z,0.82
2019-05-26T12:30:46.076Z,0.80
2019-05-26T12:33:14.952Z,0.70
2019-05-26T12:35:45.290Z,0.60
2019-05-26T12:38:14.310Z,0.90
2019-05-26T12:40:43.433Z,0.60
2019-05-26T12:43:12.262Z,0.53
2019-05-26T12:45:41.340Z,0.70
2019-05-26T12:48:10.145Z,0.70
2019-05-26T12:50:39.281Z,0.70
2019-05-26T12:53:08.283Z,0.70
2019-05-26T12:55:37.138Z,0.70
2019-05-26T12:58:05.964Z,0.57
2019-05-26T13:00:48.226Z,0.60
2019-05-26T13:03:05.620Z,0.62
2019-05-26T13:05:34.432Z,0.67
2019-05-26T13:08:03.700Z,0.70
2019-05-26T13:10:32.515Z,0.93
2019-05-26T13:13:01.687Z,0.80
2019-05-26T13:15:30.500Z,0.60
2019-05-26T13:17:59.300Z,1.20
2019-05-26T13:20:28.333Z,0.70
2019-05-26T13:22:57.180Z,0.70
2019-05-26T13:25:26.334Z,0.95
2019-05-26T13:27:55.508Z,0.85
2019-05-26T13:30:26.137Z,0.80
2019-05-26T13:32:54.877Z,1.05
2019-05-26T13:35:23.864Z,0.60
2019-05-26T13:37:52.799Z,0.70
2019-05-26T13:40:21.612Z,0.90
2019-05-26T13:42:50.572Z,0.65
2019-05-26T13:45:22.971Z,1.00
2019-05-26T13:47:50.999Z,0.60
2019-05-26T13:50:20.741Z,0.65
2019-05-26T13:52:49.534Z,0.57
2019-05-26T13:55:18.400Z,0.60
2019-05-26T13:57:49.369Z,0.68
2019-05-26T14:00:18.274Z,0.68
2019-05-26T14:02:47.281Z,0.80
2019-05-26T14:05:16.205Z,0.62
2019-05-26T14:07:45.067Z,0.82
2019-05-26T14:10:16.947Z,0.70
2019-05-26T14:12:46.073Z,0.60
2019-05-26T14:15:15.071Z,0.65
2019-05-26T14:17:44.073Z,0.80
2019-05-26T14:20:13.221Z,0.70
2019-05-26T14:22:42.044Z,1.00
2019-05-26T14:25:11.437Z,1.05
2019-05-26T14:27:41.261Z,0.72
2019-05-26T14:30:10.327Z,0.80
2019-05-26T14:32:39.166Z,0.82
2019-05-26T14:35:08.074Z,1.00
2019-05-26T14:37:36.887Z,0.75
2019-05-26T14:40:08.151Z,0.85
2019-05-26T14:42:36.945Z,1.05
2019-05-26T14:45:09.990Z,1.50
2019-05-26T14:47:38.838Z,0.90
2019-05-26T14:50:08.824Z,0.80
2019-05-26T14:52:37.919Z,0.70
2019-05-26T14:55:07.621Z,0.78
2019-05-26T14:57:36.453Z,0.78
2019-05-26T15:00:10.307Z,1.90
2019-05-26T15:02:39.180Z,1.80
2019-05-26T15:05:08.448Z,1.42
2019-05-26T15:07:37.171Z,0.90
2019-05-26T15:10:09.675Z,0.50
2019-05-26T15:12:38.524Z,0.72
2019-05-26T15:15:08.245Z,0.65
2019-05-26T15:17:38.130Z,0.78
2019-05-26T15:20:07.893Z,0.98
2019-05-26T15:22:38.192Z,1.02
2019-05-26T15:25:07.702Z,1.98
2019-05-26T15:27:36.783Z,1.30
2019-05-26T15:30:06.612Z,1.47
2019-05-26T15:32:35.616Z,1.15
2019-05-26T15:35:06.304Z,1.72
2019-05-26T15:37:35.264Z,1.50
2019-05-26T15:40:06.075Z,1.27
2019-05-26T15:42:34.879Z,1.10
2019-05-26T15:45:04.543Z,1.00
2019-05-26T15:47:33.279Z,1.45
2019-05-26T15:50:02.092Z,1.02
2019-05-26T15:52:30.957Z,0.90
2019-05-26T15:54:59.777Z,0.93
2019-05-26T15:57:28.584Z,0.70
2019-05-26T15:59:57.813Z,0.80
2019-05-26T16:02:26.652Z,0.80
2019-05-26T16:04:58.810Z,1.00
2019-05-26T16:07:25.913Z,1.10
2019-05-26T16:09:57.300Z,1.30
2019-05-26T16:12:26.138Z,0.85
2019-05-26T16:14:54.945Z,1.05
2019-05-26T16:17:24.132Z,0.60
2019-05-26T16:19:52.973Z,0.88
2019-05-26T16:22:21.783Z,0.72
2019-05-26T16:24:50.613Z,0.70
2019-05-26T16:27:20.142Z,0.60
2019-05-26T16:29:48.881Z,0.60
2019-05-26T16:32:18.983Z,0.60
2019-05-26T16:34:47.945Z,0.53
2019-05-26T16:37:20.261Z,0.82
2019-05-26T16:39:49.082Z,0.80
2019-05-26T16:42:18.346Z,0.57
2019-05-26T16:44:47.194Z,0.60
2019-05-26T16:47:16.009Z,0.60
2019-05-26T16:49:44.826Z,0.50
2019-05-26T16:52:14.023Z,0.60
2019-05-26T16:54:42.883Z,0.60
2019-05-26T16:57:11.747Z,4.45
2019-05-26T16:59:40.923Z,1.00
2019-05-26T17:02:10.073Z,0.75
2019-05-26T17:04:38.932Z,0.90
2019-05-26T17:07:07.739Z,0.80
2019-05-26T17:09:36.605Z,0.70
2019-05-26T17:12:05.922Z,0.98
2019-05-26T17:14:34.761Z,0.93
2019-05-26T17:17:14.128Z,0.88
2019-05-26T17:19:34.110Z,1.10
2019-05-26T17:22:05.925Z,0.80
2019-05-26T17:24:34.757Z,0.88
2019-05-26T17:27:03.691Z,0.80
2019-05-26T17:29:32.506Z,0.90
2019-05-26T17:32:01.377Z,1.20
2019-05-26T17:34:30.136Z,0.95
2019-05-26T17:36:59.970Z,0.62
2019-05-26T17:39:28.743Z,0.90
2019-05-26T17:41:57.551Z,0.88
2019-05-26T17:44:28.368Z,0.90
2019-05-26T17:46:56.982Z,0.90
2019-05-26T17:49:25.870Z,0.80
2019-05-26T17:51:54.715Z,2.33
2019-05-26T17:54:23.540Z,1.30
2019-05-26T17:56:52.403Z,1.25
2019-05-26T17:59:21.679Z,1.10
2019-05-26T18:01:50.582Z,0.93
2019-05-26T18:04:22.414Z,0.70
2019-05-26T18:06:51.182Z,0.85
2019-05-26T18:09:20.063Z,0.82
2019-05-26T18:11:50.158Z,0.80
2019-05-26T18:14:20.352Z,1.57
2019-05-26T18:16:49.573Z,1.50
2019-05-26T18:19:20.139Z,1.00
2019-05-26T18:21:49.085Z,1.20
2019-05-26T18:24:17.917Z,0.88
2019-05-26T18:26:46.749Z,1.30
2019-05-26T18:29:15.652Z,1.50
2019-05-26T18:31:44.754Z,1.67
2019-05-26T18:34:13.953Z,1.35
2019-05-26T18:36:42.769Z,1.20
2019-05-26T18:39:11.562Z,1.35
2019-05-26T18:41:40.415Z,1.10
2019-05-26T18:44:10.304Z,1.32
2019-05-26T18:46:41.088Z,1.47
2019-05-26T18:49:09.965Z,1.10
2019-05-26T18:51:40.118Z,1.25
2019-05-26T18:54:10.412Z,1.63
2019-05-26T18:56:39.379Z,1.10
2019-05-26T18:59:09.436Z,1.20
2019-05-26T19:01:39.762Z,0.95
2019-05-26T19:04:09.275Z,1.75
2019-05-26T19:06:38.577Z,1.17
2019-05-26T19:09:10.911Z,1.17
2019-05-26T19:11:39.733Z,1.20
2019-05-26T19:14:11.153Z,1.47
2019-05-26T19:16:40.942Z,1.40
2019-05-26T19:19:09.970Z,1.57
2019-05-26T19:21:40.204Z,1.55
2019-05-26T19:24:09.154Z,1.60
2019-05-26T19:26:38.005Z,1.62
2019-05-26T19:29:06.886Z,1.72
2019-05-26T19:31:35.773Z,1.30
2019-05-26T19:34:06.770Z,1.52
2019-05-26T19:36:37.237Z,2.08
2019-05-26T19:39:10.033Z,1.82
2019-05-26T19:41:39.531Z,2.22
2019-05-26T19:44:09.538Z,2.37
2019-05-26T19:46:38.471Z,2.42
2019-05-26T19:49:07.878Z,3.58
2019-05-26T19:51:36.675Z,2.72
2019-05-26T19:54:05.510Z,2.35
2019-05-26T19:56:34.344Z,4.28
2019-05-26T19:59:03.167Z,3.33
2019-05-26T20:01:32.084Z,3.65
2019-05-26T20:04:02.877Z,3.80
2019-05-26T20:06:31.412Z,5.67
2019-05-26T20:09:00.313Z,7.28
2019-05-26T20:11:29.049Z,6.00
2019-05-26T20:14:00.738Z,3.05
2019-05-26T20:16:32.217Z,2.33
2019-05-26T20:19:04.433Z,2.00
2019-05-26T20:21:33.262Z,1.52
2019-05-26T20:24:02.068Z,1.10
2019-05-26T20:26:32.107Z,1.22
2019-05-26T20:29:02.448Z,1.10
2019-05-26T20:31:31.380Z,0.80
2019-05-26T20:34:00.275Z,0.75
2019-05-26T20:36:29.064Z,0.95
2019-05-26T20:38:57.946Z,1.20
2019-05-26T20:41:26.774Z,2.40
2019-05-26T20:43:55.624Z,19.52
2019-05-26T20:46:24.500Z,32.45
2019-05-26T20:48:53.323Z,34.73
2019-05-26T20:51:22.077Z,36.80
2019-05-26T20:53:50.944Z,37.45
2019-05-26T20:56:20.876Z,28.60
2019-05-26T20:58:51.425Z,18.17
2019-05-26T21:01:22.009Z,14.35
2019-05-26T21:03:51.846Z,12.55
2019-05-26T21:06:20.699Z,22.02
2019-05-26T21:08:51.197Z,17.45
2019-05-26T21:11:21.602Z,24.18
2019-05-26T21:13:50.472Z,26.57
2019-05-26T21:16:21.097Z,25.97
2019-05-26T21:18:49.905Z,24.57
2019-05-26T21:21:19.836Z,13.70
2019-05-26T21:23:48.673Z,21.00
2019-05-26T21:26:17.594Z,17.57
2019-05-26T21:28:46.852Z,8.63
2019-05-26T21:31:17.553Z,5.83
2019-05-26T21:33:46.172Z,3.60
2019-05-26T21:36:15.002Z,3.60
2019-05-26T21:38:43.810Z,2.70
2019-05-26T21:41:12.724Z,2.00
2019-05-26T21:43:43.211Z,1.42
2019-05-26T21:46:12.184Z,1.47
2019-05-26T21:48:41.622Z,1.07
2019-05-26T21:51:10.445Z,1.25
2019-05-26T21:53:39.273Z,1.15
2019-05-26T21:56:09.564Z,1.00
2019-05-26T21:58:38.287Z,0.88
2019-05-26T22:01:07.234Z,1.07
2019-05-26T22:03:36.049Z,1.52
2019-05-26T22:06:05.437Z,0.88
2019-05-26T22:08:35.296Z,0.70
2019-05-26T22:11:04.329Z,0.90
2019-05-26T22:13:33.273Z,0.60
2019-05-26T22:16:02.431Z,0.60
2019-05-26T22:18:31.152Z,0.60
2019-05-26T22:21:01.202Z,0.90
2019-05-26T22:23:29.981Z,0.72
2019-05-26T22:25:58.795Z,0.72
2019-05-26T22:28:27.633Z,1.05
2019-05-26T22:30:56.429Z,0.75
2019-05-26T22:33:28.273Z,0.80
2019-05-26T22:35:56.826Z,1.15
2019-05-26T22:38:25.649Z,0.88
2019-05-26T22:40:54.480Z,0.80
2019-05-26T22:43:23.343Z,0.78
2019-05-26T22:45:52.150Z,0.70
2019-05-26T22:48:22.504Z,0.75
2019-05-26T22:50:52.828Z,0.95
2019-05-26T22:53:22.916Z,0.47
2019-05-26T22:55:52.239Z,0.80
2019-05-26T22:58:21.087Z,0.50
2019-05-26T23:00:51.260Z,0.50
2019-05-26T23:03:20.103Z,0.60
2019-05-26T23:05:48.928Z,0.98
2019-05-26T23:08:19.270Z,0.80
2019-05-26T23:10:48.076Z,0.60
2019-05-26T23:13:16.876Z,0.70
2019-05-26T23:15:45.795Z,0.90
2019-05-26T23:18:14.595Z,0.95
2019-05-26T23:20:43.801Z,0.70
2019-05-26T23:23:12.699Z,0.80
2019-05-26T23:25:43.732Z,0.55
2019-05-26T23:28:12.533Z,0.70
2019-05-26T23:30:41.363Z,0.70
2019-05-26T23:33:10.089Z,1.10
2019-05-26T23:35:38.945Z,0.85
2019-05-26T23:38:08.607Z,0.75
2019-05-26T23:40:37.401Z,0.60
2019-05-26T23:43:06.222Z,0.93
2019-05-26T23:45:35.047Z,0.50
2019-05-26T23:48:03.988Z,0.90
2019-05-26T23:50:33.410Z,0.60
2019-05-26T23:53:02.263Z,0.60
2019-05-26T23:55:31.078Z,1.00
2019-05-26T23:57:59.875Z,0.70
